Broadmeadows, Australia
Current Conditions -  °F | °C
As of 9:00 PM on Wednesday 22 Oct 2014 (Local Time) from YMEN Reporting Station
Clear Clear  
Wind Chill: 23°   Ceiling: Unl
Heat Index: 23°   Visibility: 6mi
Dew Point: 12°   Wind: 18mph
Humidity: 50%   Direction: 220°SW
Pressure: 30.03"   Gusts: NA
Location:  37.68°S, 144.92°E
Report Text: YMEN 221000Z AUTO 22016KT 9999 // NCD 23/12 Q1017
Loading
Personal Weather Stations






























Interactive Weather Map
Tropical Storm Tracking
New forecast layout! Learn more

10-Day Weather Forecast

Advertisements
Track Severe Weather on mobile